Time;durP1;ratioP1;P1;durP2;ratioP2;P2;SDS_P1;SDS_P2;PMS_P1;PMS_P2;Temp;Humidity;BMP_temperature;BMP_pressure;BME280_temperature;BME280_humidity;BME280_pressure;Samples;Min_cycle;Max_cycle;Signal;HPM_P1;HPM_P2
2022/10/17 00:00:14;;;;;;;;;14.00;13.00;;;;;18.51;100.00;100727.34;4879030;29;45484;-84
2022/10/17 00:03:36;;;;;;;;;15.00;15.00;;;;;18.54;100.00;100738.03;4894060;29;45347;-84
2022/10/17 00:06:10;;;;;;;;;13.33;13.33;;;;;18.49;100.00;100731.88;4894233;29;45541;-84
2022/10/17 00:08:37;;;;;;;;;14.00;14.00;;;;;18.52;100.00;100738.09;4895612;28;47235;-85
2022/10/17 00:11:12;;;;;;;;;13.67;13.67;;;;;18.48;100.00;100727.38;4879582;28;45469;-84
2022/10/17 00:13:37;;;;;;;;;14.00;14.00;;;;;18.52;100.00;100740.78;4879125;28;45426;-85
2022/10/17 00:16:06;;;;;;;;;11.00;11.00;;;;;18.49;100.00;100732.75;4890705;28;44805;-84
2022/10/17 00:18:32;;;;;;;;;15.67;13.67;;;;;18.47;100.00;100726.50;4877447;29;45397;-85
2022/10/17 00:20:57;;;;;;;;;17.00;16.33;;;;;18.49;100.00;100727.38;4875298;29;45318;-86
2022/10/17 00:23:23;;;;;;;;;14.33;13.33;;;;;18.49;100.00;100735.44;4861022;29;45472;-85
2022/10/17 00:25:57;;;;;;;;;13.67;13.67;;;;;18.52;100.00;100745.25;4859728;29;45494;-84
2022/10/17 00:28:23;;;;;;;;;15.00;15.00;;;;;18.50;100.00;100745.31;4875564;29;46728;-85
2022/10/17 00:30:55;;;;;;;;;14.00;12.33;;;;;18.48;100.00;100749.84;4858088;29;44753;-84
2022/10/17 00:33:21;;;;;;;;;12.33;12.33;;;;;18.44;100.00;100737.34;4860377;29;45375;-85
2022/10/17 00:35:46;;;;;;;;;15.33;14.00;;;;;18.50;100.00;100756.09;4874549;29;45468;-84
2022/10/17 00:38:13;;;;;;;;;16.00;16.00;;;;;18.50;100.00;100753.41;4859325;29;47326;-84
2022/10/17 00:40:38;;;;;;;;;17.67;17.00;;;;;18.52;100.00;100751.56;4859587;29;45572;-85
2022/10/17 00:43:03;;;;;;;;;15.67;15.67;;;;;18.46;100.00;100743.59;4875326;29;45446;-85
2022/10/17 00:45:30;;;;;;;;;16.00;16.00;;;;;18.54;100.00;100757.81;4869810;29;45437;-84
2022/10/17 00:48:08;;;;;;;;;14.00;14.00;;;;;18.55;100.00;100751.50;4857964;29;47036;-85
2022/10/17 00:50:36;;;;;;;;;13.33;13.00;;;;;18.58;100.00;100751.44;4843810;29;45369;-85
2022/10/17 00:53:05;;;;;;;;;14.33;13.00;;;;;18.61;100.00;100752.31;4877219;29;45480;-84
2022/10/17 00:55:34;;;;;;;;;14.00;12.67;;;;;18.61;100.00;100745.09;4875647;29;45226;-85
2022/10/17 00:58:03;;;;;;;;;15.00;14.00;;;;;18.59;100.00;100747.81;4874890;29;45593;-86
2022/10/17 01:00:29;;;;;;;;;14.67;13.67;;;;;18.55;100.00;100737.16;4859608;29;44896;-81
2022/10/17 01:02:54;;;;;;;;;14.00;14.00;;;;;18.57;100.00;100744.25;4877656;29;45608;-81
2022/10/17 01:05:20;;;;;;;;;16.00;15.00;;;;;18.61;100.00;100763.97;4877608;29;45481;-81
2022/10/17 01:07:49;;;;;;;;;13.67;13.33;;;;;18.53;100.00;100753.31;4876626;29;46312;-81
2022/10/17 01:10:15;;;;;;;;;13.33;12.33;;;;;18.58;100.00;100762.22;4859281;29;44944;-80
2022/10/17 01:13:02;;;;;;;;;9.67;9.00;;;;;18.58;100.00;100750.53;4859434;29;44880;-82
2022/10/17 01:15:36;;;;;;;;;15.33;14.67;;;;;18.57;100.00;100738.00;4871760;29;45456;-82
2022/10/17 01:18:17;;;;;;;;;9.00;9.00;;;;;18.56;100.00;100753.28;4859970;29;46794;-81
2022/10/17 01:21:23;;;;;;;;;17.00;15.00;;;;;18.53;100.00;100747.94;4877749;29;44863;-81
2022/10/17 01:23:55;;;;;;;;;12.67;11.67;;;;;18.52;100.00;100754.25;4860042;29;45419;-82
2022/10/17 01:26:26;;;;;;;;;13.33;13.33;;;;;18.52;100.00;100765.03;4860153;29;45821;-82
2022/10/17 01:29:10;;;;;;;;;12.67;11.67;;;;;18.53;100.00;100772.19;4859121;29;47252;-82
2022/10/17 01:32:07;;;;;;;;;13.00;13.00;;;;;18.50;100.00;100765.94;4876509;29;45353;-83
2022/10/17 01:34:48;;;;;;;;;14.67;13.67;;;;;18.46;100.00;100762.44;4863354;29;45500;-82
2022/10/17 01:37:30;;;;;;;;;11.67;11.67;;;;;18.48;100.00;100771.38;4877747;29;44986;-82
2022/10/17 01:40:10;;;;;;;;;14.67;14.67;;;;;18.48;100.00;100775.88;4877118;29;47151;-82
2022/10/17 01:42:55;;;;;;;;;13.00;11.33;;;;;18.45;100.00;100775.94;4879829;29;44759;-82
2022/10/17 01:45:31;;;;;;;;;11.67;10.33;;;;;18.45;100.00;100784.88;4880582;29;45424;-82
2022/10/17 01:48:02;;;;;;;;;14.67;13.00;;;;;18.42;100.00;100776.88;4880803;29;45326;-83
2022/10/17 01:50:34;;;;;;;;;12.00;12.00;;;;;18.39;100.00;100787.69;4863108;29;46857;-83
2022/10/17 01:53:08;;;;;;;;;13.67;13.00;;;;;18.38;100.00;100780.56;4862212;29;45446;-82
2022/10/17 01:55:40;;;;;;;;;14.00;13.33;;;;;18.38;100.00;100780.56;4862662;29;44846;-82
2022/10/17 01:58:16;;;;;;;;;16.00;16.00;;;;;18.32;100.00;100777.94;4861526;29;45401;-82
2022/10/17 02:00:45;;;;;;;;;17.67;15.33;;;;;18.35;100.00;100785.97;4878953;29;45514;-82
2022/10/17 02:03:18;;;;;;;;;14.00;10.67;;;;;18.32;100.00;100775.25;4879473;29;45399;-82
2022/10/17 02:05:44;;;;;;;;;12.67;12.00;;;;;18.33;100.00;100771.66;4863291;29;45446;-83
2022/10/17 02:08:10;;;;;;;;;12.67;12.67;;;;;18.36;100.00;100766.19;4862968;29;45437;-82
2022/10/17 02:10:46;;;;;;;;;12.33;12.33;;;;;18.39;100.00;100775.13;4879240;29;45098;-82
2022/10/17 02:13:50;;;;;;;;;11.33;11.33;;;;;18.38;100.00;100775.16;4879665;29;45494;-82
2022/10/17 02:16:39;;;;;;;;;10.00;10.00;;;;;18.44;100.00;100790.28;4862270;29;45467;-83
2022/10/17 02:19:21;;;;;;;;;12.67;12.67;;;;;18.41;100.00;100769.72;4862220;29;44824;-82
2022/10/17 02:21:49;;;;;;;;;11.00;9.67;;;;;18.46;100.00;100777.69;4861621;29;46764;-82
2022/10/17 02:24:24;;;;;;;;;11.33;11.00;;;;;18.47;100.00;100776.78;4878911;29;45455;-82
2022/10/17 02:27:10;;;;;;;;;11.00;10.67;;;;;18.45;100.00;100763.34;4877938;29;45411;-83
2022/10/17 02:29:46;;;;;;;;;10.67;10.67;;;;;18.49;100.00;100765.06;4868380;29;44835;-82
2022/10/17 02:32:23;;;;;;;;;11.00;9.33;;;;;18.50;100.00;100761.47;4860108;29;46817;-83
2022/10/17 02:34:55;;;;;;;;;10.33;9.00;;;;;18.51;100.00;100757.84;4878289;29;45593;-83
2022/10/17 02:37:27;;;;;;;;;10.00;8.67;;;;;18.49;100.00;100751.59;4861623;29;45476;-83
2022/10/17 02:39:56;;;;;;;;;12.00;12.00;;;;;18.48;100.00;100743.53;4877550;29;45306;-82
2022/10/17 02:42:24;;;;;;;;;9.67;9.33;;;;;18.49;100.00;100750.72;4876913;29;45318;-81
2022/10/17 02:44:52;;;;;;;;;10.00;10.00;;;;;18.56;100.00;100769.44;4861198;29;45328;-82
2022/10/17 02:47:25;;;;;;;;;12.33;12.33;;;;;18.57;100.00;100775.72;4871812;29;44755;-81
2022/10/17 02:49:53;;;;;;;;;11.33;10.33;;;;;18.58;100.00;100767.59;4864301;29;45347;-82
2022/10/17 02:52:27;;;;;;;;;8.33;8.33;;;;;18.61;100.00;100781.94;4871323;29;46933;-82
2022/10/17 02:55:21;;;;;;;;;13.00;11.00;;;;;18.56;100.00;100774.81;4863783;29;44711;-81
2022/10/17 02:57:54;;;;;;;;;13.00;12.00;;;;;18.56;100.00;100774.81;4857006;29;45369;-82
2022/10/17 03:00:22;;;;;;;;;10.67;10.67;;;;;18.58;100.00;100774.78;4878498;29;45466;-82
2022/10/17 03:02:51;;;;;;;;;11.00;10.00;;;;;18.56;100.00;100772.13;4878784;28;45410;-82
2022/10/17 03:05:27;;;;;;;;;10.75;9.75;;;;;18.55;100.00;100766.78;4862633;29;45566;-81
2022/10/17 03:07:53;;;;;;;;;11.67;9.33;;;;;18.52;100.00;100773.09;4862452;28;44716;-82
2022/10/17 03:10:20;;;;;;;;;12.75;11.25;;;;;18.47;100.00;100758.81;4879313;29;45493;-82
2022/10/17 03:12:45;;;;;;;;;9.75;9.75;;;;;18.56;100.00;100784.69;4863123;29;46628;-82
2022/10/17 03:15:13;;;;;;;;;12.25;11.00;;;;;18.56;100.00;100774.81;4880117;29;45415;-82
2022/10/17 03:17:38;;;;;;;;;10.75;9.75;;;;;18.55;100.00;100772.16;4863590;28;45436;-81
2022/10/17 03:20:05;;;;;;;;;12.00;11.00;;;;;18.54;100.00;100773.97;4881089;29;44891;-82
2022/10/17 03:22:30;;;;;;;;;10.25;10.25;;;;;18.53;100.00;100785.63;4879759;29;45366;-82
2022/10/17 03:24:56;;;;;;;;;13.00;9.75;;;;;18.49;100.00;100767.75;4879536;29;44716;-82
2022/10/17 03:27:23;;;;;;;;;14.00;12.00;;;;;18.50;100.00;100780.31;4861582;29;44899;-83
2022/10/17 03:29:48;;;;;;;;;10.00;10.00;;;;;18.49;100.00;100789.31;4874793;29;45695;-83
2022/10/17 03:32:13;;;;;;;;;11.25;10.00;;;;;18.47;100.00;100792.94;4860516;29;47462;-82
2022/10/17 03:34:39;;;;;;;;;10.67;10.67;;;;;18.51;100.00;100813.53;4877671;29;45416;-82
2022/10/17 03:37:04;;;;;;;;;10.67;10.00;;;;;18.52;100.00;100808.13;4877596;29;45451;-83
2022/10/17 03:39:30;;;;;;;;;10.25;10.25;;;;;18.51;100.00;100814.41;4875277;29;44992;-82
2022/10/17 03:41:55;;;;;;;;;8.50;8.00;;;;;18.54;100.00;100814.38;4877847;29;45526;-83
2022/10/17 03:44:20;;;;;;;;;11.00;9.00;;;;;18.55;100.00;100821.50;4876536;29;45442;-82
2022/10/17 03:46:46;;;;;;;;;10.25;9.00;;;;;18.53;100.00;100823.34;4876462;29;45533;-82
2022/10/17 03:49:11;;;;;;;;;9.50;9.50;;;;;18.56;100.00;100827.78;4877189;29;45439;-81
2022/10/17 03:51:37;;;;;;;;;9.33;9.00;;;;;18.53;100.00;100823.34;4873646;29;46668;-83
2022/10/17 03:54:03;;;;;;;;;9.00;9.00;;;;;18.53;100.00;100827.84;4860559;29;45503;-81
2022/10/17 03:56:28;;;;;;;;;12.67;10.00;;;;;18.54;100.00;100827.84;4861291;29;44780;-83
2022/10/17 03:58:55;;;;;;;;;10.50;8.75;;;;;18.57;100.00;100824.19;4861845;29;45368;-83
2022/10/17 04:01:21;;;;;;;;;9.00;7.67;;;;;18.59;100.00;100825.94;4877744;29;45407;-83
2022/10/17 04:03:54;;;;;;;;;7.50;7.50;;;;;18.58;100.00;100837.63;4862186;29;45483;-83
2022/10/17 04:06:20;;;;;;;;;9.33;9.33;;;;;18.55;100.00;100828.72;4862189;29;45472;-83
2022/10/17 04:08:46;;;;;;;;;12.00;12.00;;;;;18.59;100.00;100833.13;4859790;29;45341;-84
2022/10/17 04:11:15;;;;;;;;;11.00;11.00;;;;;18.61;100.00;100830.41;4877485;29;45498;-83
2022/10/17 04:13:41;;;;;;;;;10.00;10.00;;;;;18.58;100.00;100823.25;4861407;29;45489;-83
2022/10/17 04:16:10;;;;;;;;;11.00;11.00;;;;;18.63;100.00;100833.97;4859811;29;45466;-85
2022/10/17 04:18:36;;;;;;;;;9.75;8.25;;;;;18.58;100.00;100837.63;4877504;29;45374;-81
2022/10/17 04:21:03;;;;;;;;;9.75;9.75;;;;;18.59;100.00;100838.53;4860897;29;47741;-82
2022/10/17 04:23:28;;;;;;;;;11.00;9.00;;;;;18.63;100.00;100856.41;4875989;29;45606;-82
2022/10/17 04:25:58;;;;;;;;;11.00;8.00;;;;;18.63;100.00;100851.00;4877634;29;45470;-83
2022/10/17 04:28:25;;;;;;;;;12.67;11.00;;;;;18.58;100.00;100843.03;4860898;29;45343;-83
2022/10/17 04:31:20;;;;;;;;;11.33;11.33;;;;;18.59;100.00;100846.59;4861024;29;47394;-82
2022/10/17 04:33:54;;;;;;;;;8.50;8.50;;;;;18.60;100.00;100851.06;4850569;29;45444;-82
2022/10/17 04:36:19;;;;;;;;;8.00;7.00;;;;;18.61;100.00;100868.13;4877101;29;45404;-83
2022/10/17 04:38:45;;;;;;;;;10.00;8.75;;;;;18.58;100.00;100864.56;4877431;29;45443;-82
2022/10/17 04:41:13;;;;;;;;;10.33;10.33;;;;;18.60;100.00;100867.22;4877037;29;45370;-83
2022/10/17 04:43:39;;;;;;;;;10.00;10.00;;;;;18.65;100.00;100886.03;4859369;29;45475;-83
2022/10/17 04:46:08;;;;;;;;;12.50;10.00;;;;;18.62;100.00;100869.91;4875621;29;45457;-83
2022/10/17 04:48:34;;;;;;;;;10.75;9.50;;;;;18.66;100.00;100871.63;4878112;28;44817;-82
2022/10/17 04:51:02;;;;;;;;;8.67;8.67;;;;;18.67;100.00;100878.81;4843905;29;46657;-84
2022/10/17 04:53:30;;;;;;;;;8.33;8.33;;;;;18.66;100.00;100871.63;4842504;29;44868;-83
2022/10/17 04:55:55;;;;;;;;;9.00;9.00;;;;;18.67;100.00;100889.56;4843924;29;45484;-82
2022/10/17 04:58:21;;;;;;;;;9.33;9.33;;;;;18.65;100.00;100888.72;4843415;29;45452;-82
2022/10/17 05:00:47;;;;;;;;;11.00;11.00;;;;;18.69;100.00;100885.06;4859410;29;45550;-83
2022/10/17 05:03:19;;;;;;;;;8.00;8.00;;;;;18.69;100.00;100899.41;4842705;29;44896;-82
2022/10/17 05:05:44;;;;;;;;;9.25;9.00;;;;;18.74;100.00;100899.31;4843358;29;45527;-83
2022/10/17 05:08:11;;;;;;;;;9.50;9.50;;;;;18.81;100.00;100910.94;4861517;29;45465;-82
2022/10/17 05:10:41;;;;;;;;;9.50;9.50;;;;;18.86;100.00;100907.22;4861261;29;45400;-83
2022/10/17 05:13:07;;;;;;;;;7.75;7.75;;;;;18.89;100.00;100922.47;4842182;29;45685;-81
2022/10/17 05:15:33;;;;;;;;;8.50;8.00;;;;;18.89;100.00;100904.47;4824705;29;45732;-82
2022/10/17 05:17:59;;;;;;;;;10.00;8.50;;;;;18.92;100.00;100907.09;4841273;29;45413;-82
2022/10/17 05:20:26;;;;;;;;;8.50;8.00;;;;;18.94;100.00;100920.56;4844867;29;45238;-83
2022/10/17 05:22:51;;;;;;;;;9.00;9.00;;;;;18.90;100.00;100899.97;4872903;29;46447;-81
2022/10/17 05:25:17;;;;;;;;;8.00;8.00;;;;;18.88;100.00;100905.38;4838027;29;45450;-83
2022/10/17 05:27:42;;;;;;;;;9.25;9.00;;;;;18.94;100.00;100915.16;4850578;29;45531;-83
2022/10/17 05:30:08;;;;;;;;;8.00;8.00;;;;;18.88;100.00;100909.91;4875208;29;45420;-83
2022/10/17 05:32:34;;;;;;;;;10.75;9.00;;;;;18.88;100.00;100916.16;4888014;29;45001;-81
2022/10/17 05:35:00;;;;;;;;;10.00;10.00;;;;;18.84;100.00;100910.84;4895634;29;45278;-83
2022/10/17 05:37:27;;;;;;;;;9.50;9.25;;;;;18.85;100.00;100909.97;4895935;29;45342;-83
2022/10/17 05:39:53;;;;;;;;;7.00;7.00;;;;;18.84;100.00;100917.13;4895954;29;46460;-83
2022/10/17 05:42:20;;;;;;;;;10.00;10.00;;;;;18.84;100.00;100916.25;4880074;28;45478;-82
2022/10/17 05:44:45;;;;;;;;;9.50;9.50;;;;;18.79;100.00;100914.53;4893690;29;45533;-82
2022/10/17 05:47:11;;;;;;;;;10.25;9.25;;;;;18.88;100.00;100926.94;4880455;29;45361;-83
2022/10/17 05:49:36;;;;;;;;;9.00;9.00;;;;;18.90;100.00;100925.09;4908431;29;46991;-82
2022/10/17 05:52:01;;;;;;;;;11.67;10.00;;;;;18.83;100.00;100918.06;4895899;29;45435;-82
2022/10/17 05:57:51;;;;;;;;;11.67;8.33;;;;;18.76;100.00;100908.25;4896976;29;45423;-82
2022/10/17 06:00:17;;;;;;;;;8.50;8.25;;;;;18.70;100.00;100905.66;4880774;29;45860;-81
2022/10/17 06:02:44;;;;;;;;;11.00;10.00;;;;;18.61;100.00;100889.69;4897407;29;45429;-81
2022/10/17 06:05:10;;;;;;;;;9.67;9.67;;;;;18.65;100.00;100896.78;4879878;29;45348;-82
2022/10/17 06:07:35;;;;;;;;;10.00;9.00;;;;;18.58;100.00;100886.13;4893151;29;44726;-81
2022/10/17 06:10:01;;;;;;;;;12.00;12.00;;;;;18.54;100.00;100887.09;4868203;29;45237;-81
2022/10/17 06:12:27;;;;;;;;;12.67;12.00;;;;;18.56;100.00;100904.13;4878488;29;45254;-81
2022/10/17 06:14:52;;;;;;;;;8.50;8.50;;;;;18.51;100.00;100900.59;4871526;29;44772;-81
2022/10/17 06:17:17;;;;;;;;;13.50;12.75;;;;;18.46;100.00;100913.25;4878271;29;45632;-81
2022/10/17 06:19:43;;;;;;;;;12.00;11.33;;;;;18.41;100.00;100923.19;4862181;29;46739;-81
2022/10/17 06:25:31;;;;;;;;;12.00;12.00;;;;;18.39;100.00;100933.97;4880695;29;45410;-82
2022/10/17 06:27:59;;;;;;;;;9.67;9.33;;;;;18.38;100.00;100939.41;4863307;29;45485;-82
2022/10/17 06:30:25;;;;;;;;;10.33;10.33;;;;;18.41;100.00;100943.84;4879430;29;45155;-81
2022/10/17 06:32:51;;;;;;;;;12.33;12.00;;;;;18.37;100.00;100951.09;4862966;29;44831;-81
2022/10/17 06:35:17;;;;;;;;;11.00;11.00;;;;;18.39;100.00;100954.66;4864306;29;44877;-81
2022/10/17 06:37:42;;;;;;;;;12.33;12.33;;;;;18.43;100.00;100951.00;4879910;29;45343;-81
2022/10/17 06:40:10;;;;;;;;;13.00;13.00;;;;;18.45;100.00;100950.97;4879763;29;46140;-81
2022/10/17 06:42:36;;;;;;;;;11.00;11.00;;;;;18.40;100.00;100945.66;4878678;29;45456;-81
2022/10/17 06:45:01;;;;;;;;;9.00;9.00;;;;;18.44;100.00;100958.19;4862401;29;45432;-82
2022/10/17 06:47:28;;;;;;;;;12.33;12.33;;;;;18.51;100.00;100970.63;4879207;29;45373;-82
2022/10/17 06:49:54;;;;;;;;;10.67;10.67;;;;;18.53;100.00;100990.34;4873060;29;47123;-82
2022/10/17 06:52:19;;;;;;;;;13.75;13.75;;;;;18.57;100.00;100999.28;4862516;29;45555;-82
2022/10/17 06:54:45;;;;;;;;;10.00;10.00;;;;;18.58;100.00;100988.47;4863134;29;44812;-82
2022/10/17 06:57:10;;;;;;;;;11.75;10.75;;;;;18.64;100.00;101002.75;4866142;29;45454;-82
2022/10/17 06:59:38;;;;;;;;;12.67;11.00;;;;;18.69;100.00;101003.59;4880737;29;45510;-82
2022/10/17 07:02:05;;;;;;;;;22.00;20.67;;;;;18.72;100.00;101017.00;4865579;29;44732;-82
2022/10/17 07:04:30;;;;;;;;;12.00;12.00;;;;;18.73;100.00;101016.97;4880990;29;44713;-81
2022/10/17 07:06:56;;;;;;;;;13.67;11.67;;;;;18.74;100.00;101024.16;4879019;29;44989;-82
2022/10/17 07:09:23;;;;;;;;;11.00;11.00;;;;;18.72;100.00;101034.06;4863927;29;46965;-82
2022/10/17 07:11:51;;;;;;;;;8.00;8.00;;;;;18.75;100.00;101039.41;4880283;29;44856;-84
2022/10/17 07:14:20;;;;;;;;;10.33;10.00;;;;;18.76;100.00;101041.19;4856096;29;45268;-84
2022/10/17 07:16:50;;;;;;;;;11.33;11.00;;;;;18.82;100.00;101052.81;4868884;28;45722;-85
2022/10/17 07:19:15;;;;;;;;;11.67;11.33;;;;;18.75;100.00;101036.72;4883238;28;45524;-84
2022/10/17 07:21:44;;;;;;;;;9.33;9.33;;;;;18.94;100.00;101077.75;4871173;29;45552;-85
2022/10/17 07:24:10;;;;;;;;;14.00;14.00;;;;;18.81;100.00;101048.34;4867383;29;45430;-82
2022/10/17 07:26:36;;;;;;;;;12.00;9.67;;;;;18.89;100.00;101074.25;4882722;29;45380;-82
2022/10/17 07:29:05;;;;;;;;;14.00;12.67;;;;;19.05;100.00;101091.09;4863020;28;46460;-83
2022/10/17 07:31:30;;;;;;;;;12.00;12.00;;;;;19.12;100.00;101086.50;4883309;28;44849;-83
2022/10/17 07:33:59;;;;;;;;;12.33;11.00;;;;;19.15;100.00;101092.75;4881013;29;45343;-82
2022/10/17 07:36:25;;;;;;;;;7.67;7.00;;;;;19.29;100.00;101111.41;4864809;28;44872;-84
2022/10/17 07:38:51;;;;;;;;;9.00;7.33;;;;;19.10;100.00;101072.16;4866256;28;45582;-81
2022/10/17 07:41:18;;;;;;;;;10.50;10.50;;;;;19.17;100.00;101068.44;4883159;28;45436;-81
2022/10/17 07:43:47;;;;;;;;;11.75;10.75;;;;;19.50;100.00;101120.03;4865759;29;44908;-82
2022/10/17 07:46:12;;;;;;;;;11.50;10.25;;;;;19.52;100.00;101124.50;4881649;29;44959;-82
2022/10/17 07:48:40;;;;;;;;;9.00;9.00;;;;;19.52;100.00;101126.31;4878246;29;46668;-83
2022/10/17 07:51:13;;;;;;;;;9.75;9.75;;;;;19.50;100.00;101123.63;4866666;28;44885;-80
2022/10/17 07:53:44;;;;;;;;;9.75;9.50;;;;;19.45;100.00;101127.31;4866904;28;45463;-82
2022/10/17 07:56:10;;;;;;;;;8.75;7.25;;;;;19.45;100.00;101132.69;4851917;29;45502;-82
2022/10/17 07:58:39;;;;;;;;;10.00;10.00;;;;;19.36;100.00;101122.97;4880023;28;46537;-83
2022/10/17 08:01:13;;;;;;;;;9.00;9.00;;;;;19.38;100.00;101129.22;4881554;28;45350;-83
2022/10/17 08:03:41;;;;;;;;;8.75;8.75;;;;;19.28;100.00;101123.09;4883249;28;45693;-82
2022/10/17 08:06:22;;;;;;;;;;;;;;;;;;;;;
2022/10/17 08:08:50;;;;;;;;;9.33;9.00;;;;;19.37;100.00;101143.66;4879055;28;74445;-83
2022/10/17 08:11:26;;;;;;;;;11.00;10.00;;;;;19.33;100.00;101140.09;4866392;28;44686;-83
2022/10/17 08:14:15;;;;;;;;;9.75;8.00;;;;;19.41;100.00;101148.06;4880731;28;45441;-83
2022/10/17 08:16:47;;;;;;;;;7.00;7.00;;;;;19.51;100.00;101157.78;4870402;28;44972;-82
2022/10/17 08:19:47;;;;;;;;;8.25;7.00;;;;;19.55;100.00;101145.13;4865838;29;47215;-82
2022/10/17 08:22:31;;;;;;;;;8.00;8.00;;;;;19.63;100.00;101158.50;4837793;29;45258;-82
2022/10/17 08:25:13;;;;;;;;;7.33;7.33;;;;;19.76;100.00;101163.69;4880386;28;44824;-83
2022/10/17 08:28:16;;;;;;;;;10.00;10.00;;;;;19.80;100.00;101158.25;4877994;29;44979;-84
2022/10/17 08:30:43;;;;;;;;;9.00;9.00;;;;;19.97;100.00;101172.31;4849432;29;45271;-83
2022/10/17 08:33:26;;;;;;;;;10.75;10.75;;;;;19.95;100.00;101163.38;4862619;29;45626;-83
2022/10/17 08:35:53;;;;;;;;;10.00;8.00;;;;;20.22;100.00;101191.69;4880877;29;44715;-82
2022/10/17 08:38:20;;;;;;;;;8.00;8.00;;;;;20.36;100.00;101221.16;4847612;29;44901;-83
2022/10/17 08:40:51;;;;;;;;;9.33;7.33;;;;;20.25;100.00;101186.22;4863437;29;45428;-84
2022/10/17 08:43:29;;;;;;;;;12.00;8.00;;;;;20.46;100.00;101227.25;4876817;29;45348;-81
2022/10/17 08:46:15;;;;;;;;;8.00;8.00;;;;;20.35;100.00;101182.41;4878112;28;44752;-82
2022/10/17 08:48:46;;;;;;;;;7.75;7.75;;;;;20.39;100.00;101185.94;4863450;29;44834;-82
2022/10/17 08:51:32;;;;;;;;;8.00;8.00;;;;;20.69;100.00;101229.53;4878385;28;45312;-84
2022/10/17 08:54:46;;;;;;;;;;;;;;;;;;;;;
2022/10/17 08:57:18;;;;;;;;;9.67;7.33;;;;;20.58;100.00;101203.63;4869481;29;68055;-80
2022/10/17 08:59:49;;;;;;;;;10.25;9.50;;;;;20.64;100.00;101226.03;4867573;29;44897;-81
2022/10/17 09:02:48;;;;;;;;;12.67;10.00;;;;;20.72;100.00;101249.31;4853021;29;45557;-84
2022/10/17 09:05:22;;;;;;;;;9.33;9.33;;;;;20.65;100.00;101250.31;4870993;29;45402;-81
2022/10/17 09:08:11;;;;;;;;;10.00;8.75;;;;;20.61;100.00;101248.59;4874556;29;45803;-80
2022/10/17 09:11:20;;;;;;;;;8.00;8.00;;;;;20.50;100.00;101254.19;4877622;29;44772;-82
2022/10/17 09:13:55;;;;;;;;;8.50;8.50;;;;;20.44;100.00;101262.41;4875959;29;45173;-82
2022/10/17 09:16:41;;;;;;;;;8.25;8.25;;;;;20.43;100.00;101271.44;4877423;29;45011;-82
2022/10/17 09:19:19;;;;;;;;;8.25;7.00;;;;;20.39;100.00;101272.41;4860106;29;45526;-82
2022/10/17 09:21:53;;;;;;;;;7.75;6.75;;;;;20.38;100.00;101289.53;4844126;29;45595;-84
2022/10/17 09:24:48;;;;;;;;;8.25;8.25;;;;;20.38;100.00;101293.13;4865082;29;45560;-83
2022/10/17 09:27:24;;;;;;;;;8.75;8.75;;;;;20.38;100.00;101306.63;4854273;29;44989;-82
2022/10/17 09:30:11;;;;;;;;;8.75;8.75;;;;;20.41;100.00;101305.69;4849218;29;45290;-83
2022/10/17 09:32:39;;;;;;;;;10.75;7.25;;;;;20.39;100.00;101310.22;4859819;29;44898;-82
2022/10/17 09:35:16;;;;;;;;;11.25;10.50;;;;;20.37;100.00;101314.75;4870981;28;45240;-83
2022/10/17 09:37:52;;;;;;;;;7.75;7.75;;;;;20.36;100.00;101319.28;4860184;29;44826;-83
2022/10/17 09:40:25;;;;;;;;;11.75;10.00;;;;;20.30;100.00;101323.88;4875089;29;44808;-83
2022/10/17 09:42:51;;;;;;;;;10.50;9.00;;;;;20.29;100.00;101319.41;4841433;29;44948;-83
2022/10/17 09:45:36;;;;;;;;;15.50;12.50;;;;;20.36;100.00;101330.09;4880342;28;45345;-83
2022/10/17 09:48:26;;;;;;;;;10.75;10.75;;;;;20.26;100.00;101306.84;4849884;28;44810;-84
2022/10/17 09:50:56;;;;;;;;;11.25;10.00;;;;;20.42;100.00;101329.09;4863723;28;44827;-83
2022/10/17 09:53:31;;;;;;;;;11.25;11.25;;;;;20.37;100.00;101318.34;4856052;29;45110;-82
2022/10/17 09:56:07;;;;;;;;;14.50;14.50;;;;;20.29;100.00;101314.00;4866284;29;45457;-82
2022/10/17 09:59:04;;;;;;;;;;;;;;;;;;;;;
2022/10/17 10:01:33;;;;;;;;;10.00;8.67;;;;;20.37;100.00;101330.97;4868197;29;69258;-83
2022/10/17 10:04:11;;;;;;;;;10.67;10.67;;;;;20.33;100.00;101337.34;4877498;29;44843;-85
2022/10/17 10:06:59;;;;;;;;;15.00;11.33;;;;;20.22;100.00;101317.72;4861888;29;45368;-83
2022/10/17 10:09:33;;;;;;;;;8.00;8.00;;;;;20.13;100.00;101314.25;4883551;28;45335;-81
2022/10/17 10:12:05;;;;;;;;;11.50;10.75;;;;;20.25;100.00;101337.47;4875727;28;45416;-83
2022/10/17 10:14:35;;;;;;;;;13.00;13.00;;;;;20.20;100.00;101333.97;4872005;29;44801;-83
2022/10/17 10:17:25;;;;;;;;;14.25;13.50;;;;;20.08;100.00;101310.75;4869096;29;47847;-83
2022/10/17 10:19:58;;;;;;;;;13.00;12.25;;;;;20.24;100.00;101334.78;4869757;28;45476;-83
2022/10/17 10:22:34;;;;;;;;;13.00;12.00;;;;;20.26;100.00;101343.75;4865729;28;44823;-84
2022/10/17 10:25:10;;;;;;;;;12.75;11.25;;;;;20.33;100.00;101356.25;4879891;28;44950;-83
2022/10/17 10:27:38;;;;;;;;;12.00;11.00;;;;;20.32;100.00;101354.44;4884472;29;45147;-82
2022/10/17 10:30:11;;;;;;;;;12.00;12.00;;;;;20.33;100.00;101364.34;4856739;29;45327;-83
2022/10/17 10:33:04;;;;;;;;;10.00;10.00;;;;;20.37;100.00;101375.06;4865371;28;45013;-85
2022/10/17 10:35:40;;;;;;;;;13.25;12.00;;;;;20.36;100.00;101385.94;4879826;28;44816;-84
2022/10/17 10:38:16;;;;;;;;;13.50;12.00;;;;;20.27;100.00;101388.78;4868405;29;46686;-84
2022/10/17 10:40:47;;;;;;;;;17.25;15.75;;;;;20.33;100.00;101410.28;4885329;29;44872;-83
2022/10/17 10:43:24;;;;;;;;;16.33;16.33;;;;;20.30;100.00;101411.22;4885611;28;44893;-85
2022/10/17 10:45:51;;;;;;;;;26.33;26.00;;;;;20.23;100.00;101403.25;4886315;28;45395;-83
2022/10/17 10:48:35;;;;;;;;;41.00;35.33;;;;;20.27;100.00;101403.16;4869893;28;47361;-84
2022/10/17 10:51:08;;;;;;;;;21.33;20.67;;;;;20.27;100.00;101407.69;4869394;29;44772;-84
2022/10/17 10:53:52;;;;;;;;;14.33;14.00;;;;;20.27;100.00;101413.06;4862200;29;45605;-85
2022/10/17 10:56:36;;;;;;;;;14.67;14.67;;;;;20.27;100.00;101421.19;4866197;29;45377;-83
2022/10/17 11:09:52;;;;;;;;;14.67;14.00;;;;;20.14;100.00;101425.88;4874751;29;44718;-84
2022/10/17 11:13:01;;;;;;;;;14.00;11.00;;;;;20.17;100.00;101426.72;4862296;29;45513;-88
2022/10/17 11:16:09;;;;;;;;;14.00;14.00;;;;;20.25;100.00;101417.63;4871309;28;44738;-83
2022/10/17 11:19:12;;;;;;;;;12.00;12.00;;;;;20.38;100.00;101424.63;4871420;29;44965;-83
2022/10/17 11:22:34;;;;;;;;;17.00;14.00;;;;;20.49;100.00;101428.03;4854947;29;44815;-82
2022/10/17 11:25:11;;;;;;;;;20.33;16.33;;;;;20.56;100.00;101434.22;4864341;29;45762;-83
2022/10/17 11:27:43;;;;;;;;;25.67;24.00;;;;;20.58;100.00;101437.78;4865512;29;44688;-83
2022/10/17 11:30:14;;;;;;;;;20.67;20.33;;;;;20.70;100.00;101448.47;4834247;29;44895;-84
2022/10/17 11:32:46;;;;;;;;;26.00;23.00;;;;;20.76;100.00;101452.84;4850418;29;45343;-82
2022/10/17 11:39:00;;;;;;;;;15.67;14.33;;;;;20.82;100.00;101438.34;4874243;29;44809;-83
2022/10/17 11:42:06;;;;;;;;;14.00;14.00;;;;;20.78;100.00;101445.59;4867621;29;45468;-85
2022/10/17 11:45:11;;;;;;;;;18.67;18.00;;;;;20.77;100.00;101435.72;4854559;29;45638;-85
2022/10/17 11:47:50;;;;;;;;;16.00;14.75;;;;;20.47;100.00;101397.44;4880955;29;47084;-84
2022/10/17 11:50:44;;;;;;;;;13.00;13.00;;;;;20.66;100.00;101413.38;4862925;29;44748;-84
2022/10/17 11:53:20;;;;;;;;;14.67;12.33;;;;;20.87;100.00;101423.81;4861160;29;44880;-84
2022/10/17 11:56:16;;;;;;;;;18.00;17.33;;;;;20.91;100.00;101447.19;4876996;29;45492;-85